Terminal Aerodrome Forecast
Issued by NWS Sterling, VA

Home | Current Version | Previous Version | Text Only | Print | Product List | Glossary On
Versions: 1 2 3 4 5 6 7 8 9 10 11 12 13 14 15 16 17 18 19 20 21 22 23 24 25 26 27 28
791
FTUS41 KLWX 282109 AAA
TAFBWI
TAF AMD
KBWI 282109Z 2821/2924 20005KT P6SM BKN025
     FM290000 32005KT P6SM BKN030
     FM290500 35007KT P6SM BKN015
     FM291000 34010KT P6SM BKN050
     FM291300 35010KT P6SM SCT200=

USA.gov is the U.S. government's official web portal to all federal, state and local government web resources and services.